<?xml version="1.0" encoding="UTF-8"?>
<gpx
  version="1.0"
  creator="GPSBabel - http://www.gpsbabel.org"
  xmlns:xsi="http://www.w3.org/2001/XMLSchema-instance"
  xmlns="http://www.topografix.com/GPX/1/0"
  xsi:schemaLocation="http://www.topografix.com/GPX/1/0 http://www.topografix.com/GPX/1/0/gpx.xsd">
<time>2012-07-26T07:32:16Z</time>
<bounds minlat="46.599776745" minlon="6.348745823" maxlat="46.647069454" maxlon="6.377134323"/>
<trk>
  <name>26-JUL-12</name>
<trkseg>
<trkpt lat="46.599862576" lon="6.375331879">
  <ele>750.446533</ele>
  <time>2012-07-25T16:28:57Z</time>
</trkpt>
<trkpt lat="46.599841118" lon="6.375460625">
  <ele>750.927002</ele>
  <time>2012-07-25T16:32:12Z</time>
</trkpt>
<trkpt lat="46.599841118" lon="6.375396252">
  <ele>752.368896</ele>
  <time>2012-07-25T16:32:45Z</time>
</trkpt>
<trkpt lat="46.599776745" lon="6.375374794">
  <ele>751.407715</ele>
  <time>2012-07-25T16:33:24Z</time>
</trkpt>
<trkpt lat="46.599798203" lon="6.375997066">
  <ele>755.252930</ele>
  <time>2012-07-25T16:33:59Z</time>
</trkpt>
<trkpt lat="46.599926949" lon="6.376297474">
  <ele>756.214111</ele>
  <time>2012-07-25T16:34:12Z</time>
</trkpt>
<trkpt lat="46.600184441" lon="6.376533508">
  <ele>757.656250</ele>
  <time>2012-07-25T16:34:28Z</time>
</trkpt>
<trkpt lat="46.600334644" lon="6.376597881">
  <ele>758.617432</ele>
  <time>2012-07-25T16:34:38Z</time>
</trkpt>
<trkpt lat="46.600441933" lon="6.376597881">
  <ele>760.540039</ele>
  <time>2012-07-25T16:34:45Z</time>
</trkpt>
<trkpt lat="46.600699425" lon="6.376876831">
  <ele>765.827637</ele>
  <time>2012-07-25T16:35:11Z</time>
</trkpt>
<trkpt lat="46.600592136" lon="6.376855373">
  <ele>764.866211</ele>
  <time>2012-07-25T16:35:26Z</time>
</trkpt>
<trkpt lat="46.600742340" lon="6.376962662">
  <ele>764.866211</ele>
  <time>2012-07-25T16:35:48Z</time>
</trkpt>
<trkpt lat="46.601150036" lon="6.377134323">
  <ele>768.711426</ele>
  <time>2012-07-25T16:36:14Z</time>
</trkpt>
<trkpt lat="46.601364613" lon="6.377069950">
  <ele>771.114746</ele>
  <time>2012-07-25T16:36:28Z</time>
</trkpt>
<trkpt lat="46.601622105" lon="6.376662254">
  <ele>778.324463</ele>
  <time>2012-07-25T16:36:56Z</time>
</trkpt>
<trkpt lat="46.601729393" lon="6.375997066">
  <ele>785.053955</ele>
  <time>2012-07-25T16:37:28Z</time>
</trkpt>
<trkpt lat="46.601772308" lon="6.374924183">
  <ele>789.860352</ele>
  <time>2012-07-25T16:38:11Z</time>
</trkpt>
<trkpt lat="46.601879597" lon="6.374580860">
  <ele>790.341064</ele>
  <time>2012-07-25T16:38:25Z</time>
</trkpt>
<trkpt lat="46.602094173" lon="6.374108791">
  <ele>789.860352</ele>
  <time>2012-07-25T16:38:40Z</time>
</trkpt>
<trkpt lat="46.602051258" lon="6.373529434">
  <ele>788.899170</ele>
  <time>2012-07-25T16:38:54Z</time>
</trkpt>
<trkpt lat="46.601986885" lon="6.373379230">
  <ele>789.379639</ele>
  <time>2012-07-25T16:38:57Z</time>
</trkpt>
<trkpt lat="46.601901054" lon="6.373271942">
  <ele>788.418457</ele>
  <time>2012-07-25T16:39:00Z</time>
</trkpt>
<trkpt lat="46.601064205" lon="6.372692585">
  <ele>787.937744</ele>
  <time>2012-07-25T16:39:22Z</time>
</trkpt>
<trkpt lat="46.601042747" lon="6.372327805">
  <ele>787.457031</ele>
  <time>2012-07-25T16:39:27Z</time>
</trkpt>
<trkpt lat="46.601278782" lon="6.371490955">
  <ele>786.015137</ele>
  <time>2012-07-25T16:39:36Z</time>
</trkpt>
<trkpt lat="46.601343155" lon="6.370890141">
  <ele>782.650635</ele>
  <time>2012-07-25T16:39:42Z</time>
</trkpt>
<trkpt lat="46.601257324" lon="6.370611191">
  <ele>781.689209</ele>
  <time>2012-07-25T16:39:45Z</time>
</trkpt>
<trkpt lat="46.601192951" lon="6.369581223">
  <ele>779.766357</ele>
  <time>2012-07-25T16:39:55Z</time>
</trkpt>
<trkpt lat="46.600978374" lon="6.368916035">
  <ele>779.285645</ele>
  <time>2012-07-25T16:40:05Z</time>
</trkpt>
<trkpt lat="46.600592136" lon="6.368229389">
  <ele>778.324463</ele>
  <time>2012-07-25T16:40:22Z</time>
</trkpt>
<trkpt lat="46.600635052" lon="6.367692947">
  <ele>781.208740</ele>
  <time>2012-07-25T16:40:39Z</time>
</trkpt>
<trkpt lat="46.600763798" lon="6.367371082">
  <ele>783.611816</ele>
  <time>2012-07-25T16:40:54Z</time>
</trkpt>
<trkpt lat="46.601150036" lon="6.366748810">
  <ele>793.224854</ele>
  <time>2012-07-25T16:41:27Z</time>
</trkpt>
<trkpt lat="46.601235867" lon="6.365933418">
  <ele>804.280273</ele>
  <time>2012-07-25T16:42:06Z</time>
</trkpt>
<trkpt lat="46.601343155" lon="6.365847588">
  <ele>806.202637</ele>
  <time>2012-07-25T16:42:18Z</time>
</trkpt>
<trkpt lat="46.601729393" lon="6.366212368">
  <ele>811.009277</ele>
  <time>2012-07-25T16:42:46Z</time>
</trkpt>
<trkpt lat="46.601836681" lon="6.366362572">
  <ele>812.932129</ele>
  <time>2012-07-25T16:42:59Z</time>
</trkpt>
<trkpt lat="46.601943970" lon="6.366620064">
  <ele>813.893311</ele>
  <time>2012-07-25T16:43:15Z</time>
</trkpt>
<trkpt lat="46.602008343" lon="6.366941929">
  <ele>812.932129</ele>
  <time>2012-07-25T16:43:29Z</time>
</trkpt>
<trkpt lat="46.602137089" lon="6.367328167">
  <ele>815.335449</ele>
  <time>2012-07-25T16:43:47Z</time>
</trkpt>
<trkpt lat="46.602458954" lon="6.367907524">
  <ele>820.141846</ele>
  <time>2012-07-25T16:44:22Z</time>
</trkpt>
<trkpt lat="46.602566242" lon="6.368250847">
  <ele>821.583740</ele>
  <time>2012-07-25T16:44:38Z</time>
</trkpt>
<trkpt lat="46.602823734" lon="6.368851662">
  <ele>831.677734</ele>
  <time>2012-07-25T16:45:10Z</time>
</trkpt>
<trkpt lat="46.602866650" lon="6.368873119">
  <ele>832.158447</ele>
  <time>2012-07-25T16:45:13Z</time>
</trkpt>
<trkpt lat="46.603059769" lon="6.368701458">
  <ele>832.639160</ele>
  <time>2012-07-25T16:45:30Z</time>
</trkpt>
<trkpt lat="46.603317261" lon="6.368551254">
  <ele>829.755127</ele>
  <time>2012-07-25T16:45:51Z</time>
</trkpt>
<trkpt lat="46.603510380" lon="6.368744373">
  <ele>832.158447</ele>
  <time>2012-07-25T16:46:07Z</time>
</trkpt>
<trkpt lat="46.603617668" lon="6.368808746">
  <ele>833.119629</ele>
  <time>2012-07-25T16:46:15Z</time>
</trkpt>
<trkpt lat="46.603767872" lon="6.368508339">
  <ele>838.406982</ele>
  <time>2012-07-25T16:46:33Z</time>
</trkpt>
<trkpt lat="46.603767872" lon="6.368293762">
  <ele>842.732910</ele>
  <time>2012-07-25T16:46:45Z</time>
</trkpt>
<trkpt lat="46.603617668" lon="6.367843151">
  <ele>849.462158</ele>
  <time>2012-07-25T16:47:06Z</time>
</trkpt>
<trkpt lat="46.603703499" lon="6.367542744">
  <ele>857.152588</ele>
  <time>2012-07-25T16:47:18Z</time>
</trkpt>
<trkpt lat="46.603960991" lon="6.367371082">
  <ele>864.843262</ele>
  <time>2012-07-25T16:47:32Z</time>
</trkpt>
<trkpt lat="46.604325771" lon="6.367199421">
  <ele>864.843262</ele>
  <time>2012-07-25T16:47:59Z</time>
</trkpt>
<trkpt lat="46.604669094" lon="6.367113590">
  <ele>867.246582</ele>
  <time>2012-07-25T16:48:21Z</time>
</trkpt>
<trkpt lat="46.605441570" lon="6.367177963">
  <ele>870.130371</ele>
  <time>2012-07-25T16:49:11Z</time>
</trkpt>
<trkpt lat="46.605827808" lon="6.367006302">
  <ele>872.533691</ele>
  <time>2012-07-25T16:49:42Z</time>
</trkpt>
<trkpt lat="46.606407166" lon="6.367006302">
  <ele>875.898193</ele>
  <time>2012-07-25T16:50:27Z</time>
</trkpt>
<trkpt lat="46.607222557" lon="6.366791725">
  <ele>884.069580</ele>
  <time>2012-07-25T16:51:28Z</time>
</trkpt>
<trkpt lat="46.607608795" lon="6.366813183">
  <ele>888.395508</ele>
  <time>2012-07-25T16:51:51Z</time>
</trkpt>
<trkpt lat="46.607887745" lon="6.366899014">
  <ele>892.721680</ele>
  <time>2012-07-25T16:52:11Z</time>
</trkpt>
<trkpt lat="46.608231068" lon="6.366899014">
  <ele>891.279297</ele>
  <time>2012-07-25T16:52:35Z</time>
</trkpt>
<trkpt lat="46.608617306" lon="6.366813183">
  <ele>891.279297</ele>
  <time>2012-07-25T16:53:06Z</time>
</trkpt>
<trkpt lat="46.608831882" lon="6.366620064">
  <ele>889.837402</ele>
  <time>2012-07-25T16:53:31Z</time>
</trkpt>
<trkpt lat="46.608874798" lon="6.366555691">
  <ele>889.837402</ele>
  <time>2012-07-25T16:53:36Z</time>
</trkpt>
<trkpt lat="46.609261036" lon="6.366620064">
  <ele>897.528076</ele>
  <time>2012-07-25T16:54:06Z</time>
</trkpt>
<trkpt lat="46.609303951" lon="6.366555691">
  <ele>902.815186</ele>
  <time>2012-07-25T16:54:11Z</time>
</trkpt>
<trkpt lat="46.609089375" lon="6.365826130">
  <ele>910.025146</ele>
  <time>2012-07-25T16:54:52Z</time>
</trkpt>
<trkpt lat="46.608939171" lon="6.365504265">
  <ele>911.467285</ele>
  <time>2012-07-25T16:55:14Z</time>
</trkpt>
<trkpt lat="46.608574390" lon="6.365718842">
  <ele>916.273682</ele>
  <time>2012-07-25T16:55:39Z</time>
</trkpt>
<trkpt lat="46.608445644" lon="6.365461349">
  <ele>923.964111</ele>
  <time>2012-07-25T16:55:53Z</time>
</trkpt>
<trkpt lat="46.608381271" lon="6.364860535">
  <ele>935.500000</ele>
  <time>2012-07-25T16:56:24Z</time>
</trkpt>
<trkpt lat="46.608231068" lon="6.364538670">
  <ele>942.710205</ele>
  <time>2012-07-25T16:56:43Z</time>
</trkpt>
<trkpt lat="46.607844830" lon="6.364088058">
  <ele>951.361816</ele>
  <time>2012-07-25T16:57:20Z</time>
</trkpt>
<trkpt lat="46.607630253" lon="6.363787651">
  <ele>949.919922</ele>
  <time>2012-07-25T16:57:39Z</time>
</trkpt>
<trkpt lat="46.607480049" lon="6.363508701">
  <ele>954.245850</ele>
  <time>2012-07-25T16:57:57Z</time>
</trkpt>
<trkpt lat="46.606857777" lon="6.363251209">
  <ele>961.455811</ele>
  <time>2012-07-25T16:58:44Z</time>
</trkpt>
<trkpt lat="46.606771946" lon="6.363294125">
  <ele>965.781738</ele>
  <time>2012-07-25T16:58:51Z</time>
</trkpt>
<trkpt lat="46.606557369" lon="6.363015175">
  <ele>967.704102</ele>
  <time>2012-07-25T16:59:15Z</time>
</trkpt>
<trkpt lat="46.606342793" lon="6.362435818">
  <ele>971.549316</ele>
  <time>2012-07-25T16:59:54Z</time>
</trkpt>
<trkpt lat="46.606085300" lon="6.362285614">
  <ele>976.836914</ele>
  <time>2012-07-25T17:00:19Z</time>
</trkpt>
<trkpt lat="46.605420113" lon="6.362113953">
  <ele>981.643311</ele>
  <time>2012-07-25T17:01:05Z</time>
</trkpt>
<trkpt lat="46.605377197" lon="6.361856461">
  <ele>986.930420</ele>
  <time>2012-07-25T17:01:17Z</time>
</trkpt>
<trkpt lat="46.605505943" lon="6.361835003">
  <ele>989.814697</ele>
  <time>2012-07-25T17:01:25Z</time>
</trkpt>
<trkpt lat="46.605784893" lon="6.361942291">
  <ele>990.295410</ele>
  <time>2012-07-25T17:01:46Z</time>
</trkpt>
<trkpt lat="46.606042385" lon="6.361835003">
  <ele>991.256592</ele>
  <time>2012-07-25T17:02:09Z</time>
</trkpt>
<trkpt lat="46.607050896" lon="6.361663342">
  <ele>991.737305</ele>
  <time>2012-07-25T17:03:33Z</time>
</trkpt>
<trkpt lat="46.607351303" lon="6.361727715">
  <ele>993.659912</ele>
  <time>2012-07-25T17:03:57Z</time>
</trkpt>
<trkpt lat="46.608295441" lon="6.361770630">
  <ele>1007.118408</ele>
  <time>2012-07-25T17:05:04Z</time>
</trkpt>
<trkpt lat="46.609153748" lon="6.362092495">
  <ele>1020.096191</ele>
  <time>2012-07-25T17:06:09Z</time>
</trkpt>
<trkpt lat="46.609904766" lon="6.362242699">
  <ele>1026.825439</ele>
  <time>2012-07-25T17:07:04Z</time>
</trkpt>
<trkpt lat="46.610484123" lon="6.362092495">
  <ele>1032.112549</ele>
  <time>2012-07-25T17:07:49Z</time>
</trkpt>
<trkpt lat="46.610934734" lon="6.362178326">
  <ele>1036.438721</ele>
  <time>2012-07-25T17:08:31Z</time>
</trkpt>
<trkpt lat="46.611149311" lon="6.362307072">
  <ele>1039.322510</ele>
  <time>2012-07-25T17:08:49Z</time>
</trkpt>
<trkpt lat="46.611342430" lon="6.362307072">
  <ele>1049.416260</ele>
  <time>2012-07-25T17:09:17Z</time>
</trkpt>
<trkpt lat="46.611299515" lon="6.362285614">
  <ele>1054.703613</ele>
  <time>2012-07-25T17:10:00Z</time>
</trkpt>
<trkpt lat="46.611299515" lon="6.362221241">
  <ele>1055.184326</ele>
  <time>2012-07-25T17:14:48Z</time>
</trkpt>
<trkpt lat="46.612179279" lon="6.362349987">
  <ele>1059.029541</ele>
  <time>2012-07-25T17:17:18Z</time>
</trkpt>
<trkpt lat="46.612350941" lon="6.362435818">
  <ele>1058.548828</ele>
  <time>2012-07-25T17:17:28Z</time>
</trkpt>
<trkpt lat="46.612501144" lon="6.362714767">
  <ele>1061.432861</ele>
  <time>2012-07-25T17:17:41Z</time>
</trkpt>
<trkpt lat="46.612479687" lon="6.363208294">
  <ele>1061.913574</ele>
  <time>2012-07-25T17:17:59Z</time>
</trkpt>
<trkpt lat="46.612393856" lon="6.363551617">
  <ele>1062.394043</ele>
  <time>2012-07-25T17:18:15Z</time>
</trkpt>
<trkpt lat="46.612544060" lon="6.363573074">
  <ele>1062.874756</ele>
  <time>2012-07-25T17:18:27Z</time>
</trkpt>
<trkpt lat="46.612780094" lon="6.363487244">
  <ele>1065.278076</ele>
  <time>2012-07-25T17:18:44Z</time>
</trkpt>
<trkpt lat="46.613037586" lon="6.363573074">
  <ele>1062.394043</ele>
  <time>2012-07-25T17:19:01Z</time>
</trkpt>
<trkpt lat="46.613123417" lon="6.363701820">
  <ele>1065.278076</ele>
  <time>2012-07-25T17:19:12Z</time>
</trkpt>
<trkpt lat="46.613316536" lon="6.363744736">
  <ele>1068.642822</ele>
  <time>2012-07-25T17:19:30Z</time>
</trkpt>
<trkpt lat="46.613509655" lon="6.363615990">
  <ele>1072.007324</ele>
  <time>2012-07-25T17:19:46Z</time>
</trkpt>
<trkpt lat="46.613788605" lon="6.363615990">
  <ele>1074.891357</ele>
  <time>2012-07-25T17:20:06Z</time>
</trkpt>
<trkpt lat="46.614024639" lon="6.363873482">
  <ele>1074.891357</ele>
  <time>2012-07-25T17:20:25Z</time>
</trkpt>
<trkpt lat="46.614089012" lon="6.364216805">
  <ele>1078.255859</ele>
  <time>2012-07-25T17:20:41Z</time>
</trkpt>
<trkpt lat="46.614196301" lon="6.364495754">
  <ele>1084.023926</ele>
  <time>2012-07-25T17:20:56Z</time>
</trkpt>
<trkpt lat="46.614367962" lon="6.364624500">
  <ele>1081.620361</ele>
  <time>2012-07-25T17:21:12Z</time>
</trkpt>
<trkpt lat="46.615011692" lon="6.364431381">
  <ele>1091.233643</ele>
  <time>2012-07-25T17:22:00Z</time>
</trkpt>
<trkpt lat="46.615269184" lon="6.364409924">
  <ele>1092.675781</ele>
  <time>2012-07-25T17:22:18Z</time>
</trkpt>
<trkpt lat="46.615998745" lon="6.364624500">
  <ele>1097.001465</ele>
  <time>2012-07-25T17:23:08Z</time>
</trkpt>
<trkpt lat="46.616191864" lon="6.364517212">
  <ele>1099.885498</ele>
  <time>2012-07-25T17:23:22Z</time>
</trkpt>
<trkpt lat="46.616191864" lon="6.364452839">
  <ele>1101.327637</ele>
  <time>2012-07-25T17:23:27Z</time>
</trkpt>
<trkpt lat="46.616020203" lon="6.364216805">
  <ele>1106.614746</ele>
  <time>2012-07-25T17:23:46Z</time>
</trkpt>
<trkpt lat="46.615569592" lon="6.363744736">
  <ele>1118.150635</ele>
  <time>2012-07-25T17:24:25Z</time>
</trkpt>
<trkpt lat="46.614882946" lon="6.363294125">
  <ele>1122.957275</ele>
  <time>2012-07-25T17:25:14Z</time>
</trkpt>
<trkpt lat="46.614475250" lon="6.362800598">
  <ele>1124.399170</ele>
  <time>2012-07-25T17:25:50Z</time>
</trkpt>
<trkpt lat="46.614260674" lon="6.362671852">
  <ele>1131.128418</ele>
  <time>2012-07-25T17:26:07Z</time>
</trkpt>
<trkpt lat="46.614024639" lon="6.362457275">
  <ele>1134.012451</ele>
  <time>2012-07-25T17:26:25Z</time>
</trkpt>
<trkpt lat="46.613874435" lon="6.362071037">
  <ele>1139.780273</ele>
  <time>2012-07-25T17:26:46Z</time>
</trkpt>
<trkpt lat="46.613831520" lon="6.361749172">
  <ele>1143.625488</ele>
  <time>2012-07-25T17:27:02Z</time>
</trkpt>
<trkpt lat="46.613702774" lon="6.361448765">
  <ele>1143.144775</ele>
  <time>2012-07-25T17:27:20Z</time>
</trkpt>
<trkpt lat="46.613574028" lon="6.361041069">
  <ele>1142.183594</ele>
  <time>2012-07-25T17:27:40Z</time>
</trkpt>
<trkpt lat="46.613402367" lon="6.360805035">
  <ele>1145.548096</ele>
  <time>2012-07-25T17:27:57Z</time>
</trkpt>
<trkpt lat="46.612715721" lon="6.360418797">
  <ele>1145.548096</ele>
  <time>2012-07-25T17:28:51Z</time>
</trkpt>
<trkpt lat="46.612415314" lon="6.360332966">
  <ele>1150.354980</ele>
  <time>2012-07-25T17:29:10Z</time>
</trkpt>
<trkpt lat="46.612458229" lon="6.360290051">
  <ele>1149.393555</ele>
  <time>2012-07-25T17:29:18Z</time>
</trkpt>
<trkpt lat="46.613509655" lon="6.360354424">
  <ele>1151.316162</ele>
  <time>2012-07-25T17:30:47Z</time>
</trkpt>
<trkpt lat="46.614303589" lon="6.360569000">
  <ele>1163.812988</ele>
  <time>2012-07-25T17:31:59Z</time>
</trkpt>
<trkpt lat="46.615011692" lon="6.360547543">
  <ele>1164.774658</ele>
  <time>2012-07-25T17:33:04Z</time>
</trkpt>
<trkpt lat="46.616449356" lon="6.360955238">
  <ele>1186.404297</ele>
  <time>2012-07-25T17:35:13Z</time>
</trkpt>
<trkpt lat="46.616599560" lon="6.360847950">
  <ele>1190.249512</ele>
  <time>2012-07-25T17:35:28Z</time>
</trkpt>
<trkpt lat="46.616835594" lon="6.360890865">
  <ele>1194.575195</ele>
  <time>2012-07-25T17:35:45Z</time>
</trkpt>
<trkpt lat="46.617093086" lon="6.361041069">
  <ele>1196.498291</ele>
  <time>2012-07-25T17:36:02Z</time>
</trkpt>
<trkpt lat="46.617758274" lon="6.361577511">
  <ele>1196.978760</ele>
  <time>2012-07-25T17:36:34Z</time>
</trkpt>
<trkpt lat="46.618165970" lon="6.361706257">
  <ele>1197.940186</ele>
  <time>2012-07-25T17:36:48Z</time>
</trkpt>
<trkpt lat="46.618702412" lon="6.361985207">
  <ele>1198.420654</ele>
  <time>2012-07-25T17:36:59Z</time>
</trkpt>
<trkpt lat="46.619002819" lon="6.361663342">
  <ele>1200.823975</ele>
  <time>2012-07-25T17:37:26Z</time>
</trkpt>
<trkpt lat="46.620140076" lon="6.361620426">
  <ele>1204.188721</ele>
  <time>2012-07-25T17:39:00Z</time>
</trkpt>
<trkpt lat="46.620354652" lon="6.361534595">
  <ele>1202.746582</ele>
  <time>2012-07-25T17:39:18Z</time>
</trkpt>
<trkpt lat="46.620912552" lon="6.361470222">
  <ele>1206.591797</ele>
  <time>2012-07-25T17:40:10Z</time>
</trkpt>
<trkpt lat="46.621363163" lon="6.361341476">
  <ele>1211.398438</ele>
  <time>2012-07-25T17:41:28Z</time>
</trkpt>
<trkpt lat="46.621642113" lon="6.361169815">
  <ele>1209.956299</ele>
  <time>2012-07-25T17:41:51Z</time>
</trkpt>
<trkpt lat="46.622178555" lon="6.360933781">
  <ele>1213.801758</ele>
  <time>2012-07-25T17:42:36Z</time>
</trkpt>
<trkpt lat="46.622414589" lon="6.360890865">
  <ele>1237.834717</ele>
  <time>2012-07-25T17:43:25Z</time>
</trkpt>
<trkpt lat="46.622650623" lon="6.360783577">
  <ele>1238.315430</ele>
  <time>2012-07-25T17:43:44Z</time>
</trkpt>
<trkpt lat="46.622843742" lon="6.360783577">
  <ele>1242.160645</ele>
  <time>2012-07-25T17:44:03Z</time>
</trkpt>
<trkpt lat="46.623229980" lon="6.360611916">
  <ele>1238.315430</ele>
  <time>2012-07-25T17:44:36Z</time>
</trkpt>
<trkpt lat="46.623401642" lon="6.360569000">
  <ele>1236.873291</ele>
  <time>2012-07-25T17:44:51Z</time>
</trkpt>
<trkpt lat="46.623466015" lon="6.360590458">
  <ele>1236.392822</ele>
  <time>2012-07-25T17:44:53Z</time>
</trkpt>
<trkpt lat="46.623852253" lon="6.360461712">
  <ele>1244.563965</ele>
  <time>2012-07-25T17:45:28Z</time>
</trkpt>
<trkpt lat="46.624946594" lon="6.360268593">
  <ele>1246.967285</ele>
  <time>2012-07-25T17:46:34Z</time>
</trkpt>
<trkpt lat="46.625483036" lon="6.360354424">
  <ele>1259.944824</ele>
  <time>2012-07-25T17:47:04Z</time>
</trkpt>
<trkpt lat="46.625826359" lon="6.360354424">
  <ele>1258.502930</ele>
  <time>2012-07-25T17:47:24Z</time>
</trkpt>
<trkpt lat="46.626126766" lon="6.360332966">
  <ele>1260.425781</ele>
  <time>2012-07-25T17:47:41Z</time>
</trkpt>
<trkpt lat="46.626362801" lon="6.360225677">
  <ele>1257.541748</ele>
  <time>2012-07-25T17:47:58Z</time>
</trkpt>
<trkpt lat="46.626577377" lon="6.360182762">
  <ele>1259.944824</ele>
  <time>2012-07-25T17:48:14Z</time>
</trkpt>
<trkpt lat="46.626791954" lon="6.360247135">
  <ele>1261.867920</ele>
  <time>2012-07-25T17:48:30Z</time>
</trkpt>
<trkpt lat="46.627049446" lon="6.360247135">
  <ele>1261.867920</ele>
  <time>2012-07-25T17:48:48Z</time>
</trkpt>
<trkpt lat="46.627092361" lon="6.360268593">
  <ele>1262.829102</ele>
  <time>2012-07-25T17:49:01Z</time>
</trkpt>
<trkpt lat="46.627156734" lon="6.360397339">
  <ele>1277.729492</ele>
  <time>2012-07-25T17:49:50Z</time>
</trkpt>
<trkpt lat="46.627414227" lon="6.360375881">
  <ele>1271.961426</ele>
  <time>2012-07-25T17:50:07Z</time>
</trkpt>
<trkpt lat="46.627993584" lon="6.360204220">
  <ele>1281.094238</ele>
  <time>2012-07-25T17:50:39Z</time>
</trkpt>
<trkpt lat="46.628251076" lon="6.360032558">
  <ele>1277.249023</ele>
  <time>2012-07-25T17:50:55Z</time>
</trkpt>
<trkpt lat="46.628572941" lon="6.359968185">
  <ele>1282.055420</ele>
  <time>2012-07-25T17:51:16Z</time>
</trkpt>
<trkpt lat="46.628808975" lon="6.359946728">
  <ele>1281.574707</ele>
  <time>2012-07-25T17:51:31Z</time>
</trkpt>
<trkpt lat="46.629152298" lon="6.360054016">
  <ele>1283.497314</ele>
  <time>2012-07-25T17:51:54Z</time>
</trkpt>
<trkpt lat="46.629216671" lon="6.360011101">
  <ele>1287.823242</ele>
  <time>2012-07-25T17:52:07Z</time>
</trkpt>
<trkpt lat="46.629860401" lon="6.360139847">
  <ele>1286.381348</ele>
  <time>2012-07-25T17:52:35Z</time>
</trkpt>
<trkpt lat="46.631405354" lon="6.360011101">
  <ele>1286.381348</ele>
  <time>2012-07-25T17:53:07Z</time>
</trkpt>
<trkpt lat="46.631898880" lon="6.359882355">
  <ele>1284.458740</ele>
  <time>2012-07-25T17:53:19Z</time>
</trkpt>
<trkpt lat="46.632091999" lon="6.359903812">
  <ele>1280.613525</ele>
  <time>2012-07-25T17:53:29Z</time>
</trkpt>
<trkpt lat="46.632456779" lon="6.359732151">
  <ele>1275.325928</ele>
  <time>2012-07-25T17:53:40Z</time>
</trkpt>
<trkpt lat="46.633572578" lon="6.358723640">
  <ele>1273.403564</ele>
  <time>2012-07-25T17:54:03Z</time>
</trkpt>
<trkpt lat="46.634237766" lon="6.358423233">
  <ele>1272.442139</ele>
  <time>2012-07-25T17:54:15Z</time>
</trkpt>
<trkpt lat="46.634945869" lon="6.358230114">
  <ele>1267.635498</ele>
  <time>2012-07-25T17:54:28Z</time>
</trkpt>
<trkpt lat="46.635267735" lon="6.358079910">
  <ele>1265.232422</ele>
  <time>2012-07-25T17:54:34Z</time>
</trkpt>
<trkpt lat="46.635696888" lon="6.358294487">
  <ele>1263.790283</ele>
  <time>2012-07-25T17:54:42Z</time>
</trkpt>
<trkpt lat="46.636319160" lon="6.358444691">
  <ele>1266.674316</ele>
  <time>2012-07-25T17:54:53Z</time>
</trkpt>
<trkpt lat="46.637113094" lon="6.358380318">
  <ele>1260.425781</ele>
  <time>2012-07-25T17:55:08Z</time>
</trkpt>
<trkpt lat="46.637241840" lon="6.358251572">
  <ele>1254.177246</ele>
  <time>2012-07-25T17:55:16Z</time>
</trkpt>
<trkpt lat="46.637370586" lon="6.357951164">
  <ele>1246.006104</ele>
  <time>2012-07-25T17:55:33Z</time>
</trkpt>
<trkpt lat="46.637606621" lon="6.357543468">
  <ele>1245.525391</ele>
  <time>2012-07-25T17:56:02Z</time>
</trkpt>
<trkpt lat="46.637799740" lon="6.356835365">
  <ele>1255.138428</ele>
  <time>2012-07-25T17:56:51Z</time>
</trkpt>
<trkpt lat="46.637756824" lon="6.356685162">
  <ele>1255.619141</ele>
  <time>2012-07-25T17:57:01Z</time>
</trkpt>
<trkpt lat="46.637284756" lon="6.356427670">
  <ele>1261.387207</ele>
  <time>2012-07-25T17:57:35Z</time>
</trkpt>
<trkpt lat="46.636962891" lon="6.356127262">
  <ele>1265.232422</ele>
  <time>2012-07-25T17:58:02Z</time>
</trkpt>
<trkpt lat="46.636576653" lon="6.355934143">
  <ele>1273.403564</ele>
  <time>2012-07-25T17:58:34Z</time>
</trkpt>
<trkpt lat="46.636233330" lon="6.355633736">
  <ele>1278.210205</ele>
  <time>2012-07-25T17:59:07Z</time>
</trkpt>
<trkpt lat="46.636040211" lon="6.355504990">
  <ele>1281.574707</ele>
  <time>2012-07-25T17:59:25Z</time>
</trkpt>
<trkpt lat="46.635868549" lon="6.355440617">
  <ele>1283.978027</ele>
  <time>2012-07-25T17:59:40Z</time>
</trkpt>
<trkpt lat="46.635439396" lon="6.355140209">
  <ele>1289.745850</ele>
  <time>2012-07-25T18:00:19Z</time>
</trkpt>
<trkpt lat="46.634860039" lon="6.354839802">
  <ele>1294.072021</ele>
  <time>2012-07-25T18:01:06Z</time>
</trkpt>
<trkpt lat="46.634237766" lon="6.354689598">
  <ele>1297.436523</ele>
  <time>2012-07-25T18:01:56Z</time>
</trkpt>
<trkpt lat="46.634087563" lon="6.354539394">
  <ele>1302.723633</ele>
  <time>2012-07-25T18:02:12Z</time>
</trkpt>
<trkpt lat="46.633958817" lon="6.354367733">
  <ele>1303.204346</ele>
  <time>2012-07-25T18:02:26Z</time>
</trkpt>
<trkpt lat="46.633701324" lon="6.353917122">
  <ele>1300.320557</ele>
  <time>2012-07-25T18:02:54Z</time>
</trkpt>
<trkpt lat="46.633336544" lon="6.353445053">
  <ele>1303.204346</ele>
  <time>2012-07-25T18:03:20Z</time>
</trkpt>
<trkpt lat="46.633143425" lon="6.353251934">
  <ele>1303.204346</ele>
  <time>2012-07-25T18:03:32Z</time>
</trkpt>
<trkpt lat="46.632585526" lon="6.352415085">
  <ele>1299.839844</ele>
  <time>2012-07-25T18:04:14Z</time>
</trkpt>
<trkpt lat="46.632328033" lon="6.352114677">
  <ele>1298.397705</ele>
  <time>2012-07-25T18:04:29Z</time>
</trkpt>
<trkpt lat="46.631941795" lon="6.351470947">
  <ele>1301.281738</ele>
  <time>2012-07-25T18:04:56Z</time>
</trkpt>
<trkpt lat="46.631920338" lon="6.351470947">
  <ele>1301.281738</ele>
  <time>2012-07-25T18:04:57Z</time>
</trkpt>
<trkpt lat="46.631727219" lon="6.351041794">
  <ele>1306.568848</ele>
  <time>2012-07-25T18:05:20Z</time>
</trkpt>
<trkpt lat="46.631534100" lon="6.350398064">
  <ele>1306.568848</ele>
  <time>2012-07-25T18:05:49Z</time>
</trkpt>
<trkpt lat="46.631362438" lon="6.350119114">
  <ele>1307.530273</ele>
  <time>2012-07-25T18:06:03Z</time>
</trkpt>
<trkpt lat="46.631169319" lon="6.349968910">
  <ele>1308.972412</ele>
  <time>2012-07-25T18:06:18Z</time>
</trkpt>
<trkpt lat="46.630868912" lon="6.349883080">
  <ele>1311.375732</ele>
  <time>2012-07-25T18:06:39Z</time>
</trkpt>
<trkpt lat="46.630225182" lon="6.350076199">
  <ele>1316.182129</ele>
  <time>2012-07-25T18:07:24Z</time>
</trkpt>
<trkpt lat="46.629602909" lon="6.350376606">
  <ele>1322.430664</ele>
  <time>2012-07-25T18:08:06Z</time>
</trkpt>
<trkpt lat="46.629345417" lon="6.350612640">
  <ele>1322.911377</ele>
  <time>2012-07-25T18:08:22Z</time>
</trkpt>
<trkpt lat="46.628744602" lon="6.350526810">
  <ele>1335.408447</ele>
  <time>2012-07-25T18:09:04Z</time>
</trkpt>
<trkpt lat="46.628251076" lon="6.350569725">
  <ele>1337.331055</ele>
  <time>2012-07-25T18:09:42Z</time>
</trkpt>
<trkpt lat="46.627757549" lon="6.350741386">
  <ele>1345.021729</ele>
  <time>2012-07-25T18:10:23Z</time>
</trkpt>
<trkpt lat="46.627478600" lon="6.350891590">
  <ele>1348.866943</ele>
  <time>2012-07-25T18:10:52Z</time>
</trkpt>
<trkpt lat="46.627457142" lon="6.351020336">
  <ele>1353.192871</ele>
  <time>2012-07-25T18:11:04Z</time>
</trkpt>
<trkpt lat="46.627929211" lon="6.351363659">
  <ele>1358.960938</ele>
  <time>2012-07-25T18:11:49Z</time>
</trkpt>
<trkpt lat="46.628100872" lon="6.351535320">
  <ele>1359.441650</ele>
  <time>2012-07-25T18:12:03Z</time>
</trkpt>
<trkpt lat="46.628379822" lon="6.351728439">
  <ele>1361.844971</ele>
  <time>2012-07-25T18:12:22Z</time>
</trkpt>
<trkpt lat="46.628980637" lon="6.352028847">
  <ele>1367.612549</ele>
  <time>2012-07-25T18:13:10Z</time>
</trkpt>
<trkpt lat="46.629152298" lon="6.352157593">
  <ele>1369.054688</ele>
  <time>2012-07-25T18:13:25Z</time>
</trkpt>
<trkpt lat="46.629152298" lon="6.352372169">
  <ele>1371.938477</ele>
  <time>2012-07-25T18:13:38Z</time>
</trkpt>
<trkpt lat="46.628808975" lon="6.352651119">
  <ele>1378.187256</ele>
  <time>2012-07-25T18:14:10Z</time>
</trkpt>
<trkpt lat="46.627993584" lon="6.352994442">
  <ele>1388.761963</ele>
  <time>2012-07-25T18:15:18Z</time>
</trkpt>
<trkpt lat="46.627628803" lon="6.353209019">
  <ele>1392.607178</ele>
  <time>2012-07-25T18:15:49Z</time>
</trkpt>
<trkpt lat="46.627478600" lon="6.353337765">
  <ele>1394.529541</ele>
  <time>2012-07-25T18:16:04Z</time>
</trkpt>
<trkpt lat="46.627221107" lon="6.353681087">
  <ele>1395.971680</ele>
  <time>2012-07-25T18:16:32Z</time>
</trkpt>
<trkpt lat="46.627221107" lon="6.353809834">
  <ele>1396.932861</ele>
  <time>2012-07-25T18:16:42Z</time>
</trkpt>
<trkpt lat="46.627242565" lon="6.353766918">
  <ele>1400.778076</ele>
  <time>2012-07-25T18:43:47Z</time>
</trkpt>
<trkpt lat="46.627199650" lon="6.353766918">
  <ele>1397.894287</ele>
  <time>2012-07-25T18:48:25Z</time>
</trkpt>
<trkpt lat="46.627199650" lon="6.353702545">
  <ele>1398.374756</ele>
  <time>2012-07-25T18:48:30Z</time>
</trkpt>
<trkpt lat="46.627264023" lon="6.353573799">
  <ele>1396.452393</ele>
  <time>2012-07-25T18:48:40Z</time>
</trkpt>
<trkpt lat="46.627435684" lon="6.353359222">
  <ele>1394.529541</ele>
  <time>2012-07-25T18:48:51Z</time>
</trkpt>
<trkpt lat="46.627693176" lon="6.353123188">
  <ele>1391.165039</ele>
  <time>2012-07-25T18:49:00Z</time>
</trkpt>
<trkpt lat="46.629023552" lon="6.352479458">
  <ele>1373.380859</ele>
  <time>2012-07-25T18:49:22Z</time>
</trkpt>
<trkpt lat="46.629152298" lon="6.352114677">
  <ele>1368.093262</ele>
  <time>2012-07-25T18:49:27Z</time>
</trkpt>
<trkpt lat="46.628208160" lon="6.351578236">
  <ele>1358.960938</ele>
  <time>2012-07-25T18:49:41Z</time>
</trkpt>
<trkpt lat="46.627478600" lon="6.351020336">
  <ele>1353.192871</ele>
  <time>2012-07-25T18:49:53Z</time>
</trkpt>
<trkpt lat="46.627500057" lon="6.350784302">
  <ele>1349.828369</ele>
  <time>2012-07-25T18:49:58Z</time>
</trkpt>
<trkpt lat="46.628186703" lon="6.350526810">
  <ele>1341.176514</ele>
  <time>2012-07-25T18:50:05Z</time>
</trkpt>
<trkpt lat="46.629152298" lon="6.350548267">
  <ele>1329.159912</ele>
  <time>2012-07-25T18:50:14Z</time>
</trkpt>
<trkpt lat="46.629538536" lon="6.350419521">
  <ele>1327.237549</ele>
  <time>2012-07-25T18:50:18Z</time>
</trkpt>
<trkpt lat="46.630375385" lon="6.349990368">
  <ele>1318.585449</ele>
  <time>2012-07-25T18:50:27Z</time>
</trkpt>
<trkpt lat="46.630632877" lon="6.349904537">
  <ele>1315.701660</ele>
  <time>2012-07-25T18:50:30Z</time>
</trkpt>
<trkpt lat="46.630718708" lon="6.349689960">
  <ele>1312.336914</ele>
  <time>2012-07-25T18:50:35Z</time>
</trkpt>
<trkpt lat="46.630504131" lon="6.349475384">
  <ele>1309.933594</ele>
  <time>2012-07-25T18:50:39Z</time>
</trkpt>
<trkpt lat="46.630332470" lon="6.349003315">
  <ele>1308.491699</ele>
  <time>2012-07-25T18:50:45Z</time>
</trkpt>
<trkpt lat="46.630418301" lon="6.348810196">
  <ele>1308.491699</ele>
  <time>2012-07-25T18:50:50Z</time>
</trkpt>
<trkpt lat="46.630675793" lon="6.348745823">
  <ele>1311.375732</ele>
  <time>2012-07-25T18:51:02Z</time>
</trkpt>
<trkpt lat="46.631019115" lon="6.348810196">
  <ele>1313.778809</ele>
  <time>2012-07-25T18:51:17Z</time>
</trkpt>
<trkpt lat="46.631834507" lon="6.349303722">
  <ele>1317.624023</ele>
  <time>2012-07-25T18:51:51Z</time>
</trkpt>
<trkpt lat="46.632006168" lon="6.349732876">
  <ele>1317.624023</ele>
  <time>2012-07-25T18:52:02Z</time>
</trkpt>
<trkpt lat="46.632392406" lon="6.350419521">
  <ele>1316.182129</ele>
  <time>2012-07-25T18:52:14Z</time>
</trkpt>
<trkpt lat="46.632907391" lon="6.350719929">
  <ele>1314.740234</ele>
  <time>2012-07-25T18:52:23Z</time>
</trkpt>
<trkpt lat="46.633508205" lon="6.350977421">
  <ele>1315.701660</ele>
  <time>2012-07-25T18:52:33Z</time>
</trkpt>
<trkpt lat="46.634237766" lon="6.351792812">
  <ele>1314.259521</ele>
  <time>2012-07-25T18:52:47Z</time>
</trkpt>
<trkpt lat="46.634967327" lon="6.352715492">
  <ele>1311.375732</ele>
  <time>2012-07-25T18:52:59Z</time>
</trkpt>
<trkpt lat="46.635761261" lon="6.353123188">
  <ele>1308.011230</ele>
  <time>2012-07-25T18:53:07Z</time>
</trkpt>
<trkpt lat="46.636061668" lon="6.352951527">
  <ele>1306.088135</ele>
  <time>2012-07-25T18:53:11Z</time>
</trkpt>
<trkpt lat="46.636297703" lon="6.352565289">
  <ele>1304.646240</ele>
  <time>2012-07-25T18:53:15Z</time>
</trkpt>
<trkpt lat="46.637091637" lon="6.352458000">
  <ele>1295.513916</ele>
  <time>2012-07-25T18:53:23Z</time>
</trkpt>
<trkpt lat="46.637499332" lon="6.352479458">
  <ele>1293.591309</ele>
  <time>2012-07-25T18:53:28Z</time>
</trkpt>
<trkpt lat="46.638228893" lon="6.352930069">
  <ele>1293.110596</ele>
  <time>2012-07-25T18:53:35Z</time>
</trkpt>
<trkpt lat="46.639151573" lon="6.353187561">
  <ele>1287.342529</ele>
  <time>2012-07-25T18:53:43Z</time>
</trkpt>
<trkpt lat="46.639709473" lon="6.353745461">
  <ele>1283.978027</ele>
  <time>2012-07-25T18:53:49Z</time>
</trkpt>
<trkpt lat="46.639945507" lon="6.354238987">
  <ele>1281.574707</ele>
  <time>2012-07-25T18:53:53Z</time>
</trkpt>
<trkpt lat="46.640160084" lon="6.354539394">
  <ele>1281.574707</ele>
  <time>2012-07-25T18:53:56Z</time>
</trkpt>
<trkpt lat="46.640675068" lon="6.354646683">
  <ele>1281.094238</ele>
  <time>2012-07-25T18:54:02Z</time>
</trkpt>
<trkpt lat="46.641554832" lon="6.354925632">
  <ele>1276.287598</ele>
  <time>2012-07-25T18:54:15Z</time>
</trkpt>
<trkpt lat="46.641983986" lon="6.354818344">
  <ele>1271.000244</ele>
  <time>2012-07-25T18:54:21Z</time>
</trkpt>
<trkpt lat="46.643207073" lon="6.354882717">
  <ele>1257.061035</ele>
  <time>2012-07-25T18:54:43Z</time>
</trkpt>
<trkpt lat="46.644709110" lon="6.355912685">
  <ele>1238.315430</ele>
  <time>2012-07-25T18:55:06Z</time>
</trkpt>
<trkpt lat="46.645395756" lon="6.356298923">
  <ele>1230.625000</ele>
  <time>2012-07-25T18:55:14Z</time>
</trkpt>
<trkpt lat="46.645696163" lon="6.356706619">
  <ele>1227.260254</ele>
  <time>2012-07-25T18:55:18Z</time>
</trkpt>
<trkpt lat="46.646232605" lon="6.357007027">
  <ele>1220.531006</ele>
  <time>2012-07-25T18:55:24Z</time>
</trkpt>
<trkpt lat="46.646618843" lon="6.356964111">
  <ele>1216.685791</ele>
  <time>2012-07-25T18:55:28Z</time>
</trkpt>
<trkpt lat="46.646962166" lon="6.357243061">
  <ele>1213.801758</ele>
  <time>2012-07-25T18:55:33Z</time>
</trkpt>
<trkpt lat="46.647047997" lon="6.357500553">
  <ele>1211.879150</ele>
  <time>2012-07-25T18:55:37Z</time>
</trkpt>
<trkpt lat="46.647069454" lon="6.357672215">
  <ele>1211.879150</ele>
  <time>2012-07-25T18:55:40Z</time>
</trkpt>
<trkpt lat="46.647005081" lon="6.357736588">
  <ele>1210.917725</ele>
  <time>2012-07-25T18:55:44Z</time>
</trkpt>
<trkpt lat="46.646747589" lon="6.357607841">
  <ele>1210.437012</ele>
  <time>2012-07-25T18:55:54Z</time>
</trkpt>
<trkpt lat="46.645932198" lon="6.358144283">
  <ele>1209.956299</ele>
  <time>2012-07-25T18:56:24Z</time>
</trkpt>
<trkpt lat="46.645460129" lon="6.358358860">
  <ele>1209.475830</ele>
  <time>2012-07-25T18:56:36Z</time>
</trkpt>
<trkpt lat="46.644601822" lon="6.358659267">
  <ele>1211.398438</ele>
  <time>2012-07-25T18:56:59Z</time>
</trkpt>
<trkpt lat="46.644065380" lon="6.358916759">
  <ele>1209.956299</ele>
  <time>2012-07-25T18:57:13Z</time>
</trkpt>
<trkpt lat="46.643142700" lon="6.358938217">
  <ele>1205.630615</ele>
  <time>2012-07-25T18:57:35Z</time>
</trkpt>
<trkpt lat="46.642091274" lon="6.359195709">
  <ele>1203.227295</ele>
  <time>2012-07-25T18:58:01Z</time>
</trkpt>
<trkpt lat="46.641576290" lon="6.359088421">
  <ele>1199.382080</ele>
  <time>2012-07-25T18:58:14Z</time>
</trkpt>
<trkpt lat="46.641018391" lon="6.358637810">
  <ele>1197.459473</ele>
  <time>2012-07-25T18:58:27Z</time>
</trkpt>
<trkpt lat="46.640331745" lon="6.358315945">
  <ele>1196.978760</ele>
  <time>2012-07-25T18:58:40Z</time>
</trkpt>
<trkpt lat="46.639945507" lon="6.358745098">
  <ele>1196.498291</ele>
  <time>2012-07-25T18:58:49Z</time>
</trkpt>
<trkpt lat="46.638872623" lon="6.360461712">
  <ele>1187.365479</ele>
  <time>2012-07-25T18:59:16Z</time>
</trkpt>
<trkpt lat="46.638121605" lon="6.361405849">
  <ele>1185.442871</ele>
  <time>2012-07-25T18:59:31Z</time>
</trkpt>
<trkpt lat="46.637885571" lon="6.362071037">
  <ele>1183.520264</ele>
  <time>2012-07-25T18:59:42Z</time>
</trkpt>
<trkpt lat="46.637821198" lon="6.362178326">
  <ele>1183.520264</ele>
  <time>2012-07-25T18:59:44Z</time>
</trkpt>
<trkpt lat="46.636598110" lon="6.363251209">
  <ele>1182.078369</ele>
  <time>2012-07-25T19:00:07Z</time>
</trkpt>
<trkpt lat="46.635932922" lon="6.364259720">
  <ele>1177.271729</ele>
  <time>2012-07-25T19:00:21Z</time>
</trkpt>
<trkpt lat="46.635632515" lon="6.364860535">
  <ele>1174.387695</ele>
  <time>2012-07-25T19:00:29Z</time>
</trkpt>
<trkpt lat="46.635653973" lon="6.365268230">
  <ele>1164.293945</ele>
  <time>2012-07-25T19:00:42Z</time>
</trkpt>
<trkpt lat="46.635589600" lon="6.365826130">
  <ele>1159.006592</ele>
  <time>2012-07-25T19:00:56Z</time>
</trkpt>
<trkpt lat="46.634988785" lon="6.366705894">
  <ele>1157.564697</ele>
  <time>2012-07-25T19:01:05Z</time>
</trkpt>
<trkpt lat="46.634430885" lon="6.367456913">
  <ele>1154.680664</ele>
  <time>2012-07-25T19:01:13Z</time>
</trkpt>
<trkpt lat="46.634280682" lon="6.367564201">
  <ele>1150.835449</ele>
  <time>2012-07-25T19:01:16Z</time>
</trkpt>
<trkpt lat="46.634001732" lon="6.367607117">
  <ele>1144.586670</ele>
  <time>2012-07-25T19:01:21Z</time>
</trkpt>
<trkpt lat="46.633443832" lon="6.367199421">
  <ele>1131.608887</ele>
  <time>2012-07-25T19:01:32Z</time>
</trkpt>
<trkpt lat="46.633143425" lon="6.366920471">
  <ele>1125.841064</ele>
  <time>2012-07-25T19:01:38Z</time>
</trkpt>
<trkpt lat="46.632800102" lon="6.366877556">
  <ele>1121.515137</ele>
  <time>2012-07-25T19:01:44Z</time>
</trkpt>
<trkpt lat="46.632242203" lon="6.367092133">
  <ele>1115.266602</ele>
  <time>2012-07-25T19:01:58Z</time>
</trkpt>
<trkpt lat="46.631791592" lon="6.367135048">
  <ele>1110.940674</ele>
  <time>2012-07-25T19:02:10Z</time>
</trkpt>
<trkpt lat="46.631040573" lon="6.366984844">
  <ele>1110.459961</ele>
  <time>2012-07-25T19:02:27Z</time>
</trkpt>
<trkpt lat="46.630783081" lon="6.367049217">
  <ele>1109.979248</ele>
  <time>2012-07-25T19:02:31Z</time>
</trkpt>
<trkpt lat="46.630160809" lon="6.367671490">
  <ele>1105.172852</ele>
  <time>2012-07-25T19:02:41Z</time>
</trkpt>
<trkpt lat="46.630096436" lon="6.367757320">
  <ele>1105.172852</ele>
  <time>2012-07-25T19:02:42Z</time>
</trkpt>
<trkpt lat="46.629838943" lon="6.368722916">
  <ele>1104.692139</ele>
  <time>2012-07-25T19:02:50Z</time>
</trkpt>
<trkpt lat="46.629259586" lon="6.370053291">
  <ele>1096.520996</ele>
  <time>2012-07-25T19:03:02Z</time>
</trkpt>
<trkpt lat="46.628959179" lon="6.371169090">
  <ele>1092.675781</ele>
  <time>2012-07-25T19:03:13Z</time>
</trkpt>
<trkpt lat="46.628894806" lon="6.371726990">
  <ele>1090.752930</ele>
  <time>2012-07-25T19:03:19Z</time>
</trkpt>
<trkpt lat="46.628766060" lon="6.372070313">
  <ele>1091.714355</ele>
  <time>2012-07-25T19:03:24Z</time>
</trkpt>
<trkpt lat="46.628336906" lon="6.372392178">
  <ele>1093.156250</ele>
  <time>2012-07-25T19:03:34Z</time>
</trkpt>
<trkpt lat="46.627757549" lon="6.372456551">
  <ele>1093.156250</ele>
  <time>2012-07-25T19:03:47Z</time>
</trkpt>
<trkpt lat="46.627349854" lon="6.371490955">
  <ele>1092.675781</ele>
  <time>2012-07-25T19:04:00Z</time>
</trkpt>
<trkpt lat="46.626877785" lon="6.370482445">
  <ele>1093.156250</ele>
  <time>2012-07-25T19:04:15Z</time>
</trkpt>
<trkpt lat="46.626298428" lon="6.370031834">
  <ele>1094.117676</ele>
  <time>2012-07-25T19:04:26Z</time>
</trkpt>
<trkpt lat="46.625053883" lon="6.369559765">
  <ele>1094.117676</ele>
  <time>2012-07-25T19:04:47Z</time>
</trkpt>
<trkpt lat="46.624131203" lon="6.369280815">
  <ele>1093.156250</ele>
  <time>2012-07-25T19:05:02Z</time>
</trkpt>
<trkpt lat="46.623551846" lon="6.369559765">
  <ele>1091.714355</ele>
  <time>2012-07-25T19:05:09Z</time>
</trkpt>
<trkpt lat="46.623165607" lon="6.369688511">
  <ele>1090.752930</ele>
  <time>2012-07-25T19:05:13Z</time>
</trkpt>
<trkpt lat="46.621448994" lon="6.369667053">
  <ele>1082.581787</ele>
  <time>2012-07-25T19:05:29Z</time>
</trkpt>
<trkpt lat="46.620140076" lon="6.369302273">
  <ele>1079.217041</ele>
  <time>2012-07-25T19:05:40Z</time>
</trkpt>
<trkpt lat="46.619753838" lon="6.369237900">
  <ele>1078.255859</ele>
  <time>2012-07-25T19:05:43Z</time>
</trkpt>
<trkpt lat="46.619517803" lon="6.369280815">
  <ele>1077.775146</ele>
  <time>2012-07-25T19:05:46Z</time>
</trkpt>
<trkpt lat="46.619260311" lon="6.369516850">
  <ele>1075.852539</ele>
  <time>2012-07-25T19:05:50Z</time>
</trkpt>
<trkpt lat="46.618337631" lon="6.369967461">
  <ele>1070.084717</ele>
  <time>2012-07-25T19:06:01Z</time>
</trkpt>
<trkpt lat="46.618165970" lon="6.369988918">
  <ele>1070.084717</ele>
  <time>2012-07-25T19:06:03Z</time>
</trkpt>
<trkpt lat="46.617779732" lon="6.369817257">
  <ele>1065.758789</ele>
  <time>2012-07-25T19:06:09Z</time>
</trkpt>
<trkpt lat="46.617715359" lon="6.370246410">
  <ele>1061.432861</ele>
  <time>2012-07-25T19:06:13Z</time>
</trkpt>
<trkpt lat="46.617865562" lon="6.370697021">
  <ele>1053.742432</ele>
  <time>2012-07-25T19:06:17Z</time>
</trkpt>
<trkpt lat="46.618294716" lon="6.371212006">
  <ele>1051.338867</ele>
  <time>2012-07-25T19:06:23Z</time>
</trkpt>
<trkpt lat="46.618487835" lon="6.371340752">
  <ele>1051.338867</ele>
  <time>2012-07-25T19:06:25Z</time>
</trkpt>
<trkpt lat="46.618788242" lon="6.371448040">
  <ele>1050.858154</ele>
  <time>2012-07-25T19:06:28Z</time>
</trkpt>
<trkpt lat="46.619174480" lon="6.371684074">
  <ele>1050.858154</ele>
  <time>2012-07-25T19:06:32Z</time>
</trkpt>
<trkpt lat="46.619818211" lon="6.372799873">
  <ele>1045.090332</ele>
  <time>2012-07-25T19:06:42Z</time>
</trkpt>
<trkpt lat="46.620097160" lon="6.373100281">
  <ele>1042.687256</ele>
  <time>2012-07-25T19:06:46Z</time>
</trkpt>
<trkpt lat="46.620204449" lon="6.373314857">
  <ele>1042.687256</ele>
  <time>2012-07-25T19:06:49Z</time>
</trkpt>
<trkpt lat="46.620118618" lon="6.373336315">
  <ele>1042.206543</ele>
  <time>2012-07-25T19:06:52Z</time>
</trkpt>
<trkpt lat="46.619389057" lon="6.372864246">
  <ele>1042.206543</ele>
  <time>2012-07-25T19:06:55Z</time>
</trkpt>
<trkpt lat="46.618766785" lon="6.372799873">
  <ele>1039.803223</ele>
  <time>2012-07-25T19:07:03Z</time>
</trkpt>
<trkpt lat="46.618638039" lon="6.373293400">
  <ele>1039.322510</ele>
  <time>2012-07-25T19:07:06Z</time>
</trkpt>
<trkpt lat="46.618208885" lon="6.373143196">
  <ele>1035.477051</ele>
  <time>2012-07-25T19:07:12Z</time>
</trkpt>
<trkpt lat="46.617929935" lon="6.372842789">
  <ele>1035.477051</ele>
  <time>2012-07-25T19:07:16Z</time>
</trkpt>
<trkpt lat="46.618080139" lon="6.373250484">
  <ele>1034.996582</ele>
  <time>2012-07-25T19:07:23Z</time>
</trkpt>
<trkpt lat="46.618444920" lon="6.373872757">
  <ele>1034.996582</ele>
  <time>2012-07-25T19:07:28Z</time>
</trkpt>
<trkpt lat="46.618809700" lon="6.374108791">
  <ele>1034.515869</ele>
  <time>2012-07-25T19:07:32Z</time>
</trkpt>
<trkpt lat="46.619217396" lon="6.374988556">
  <ele>1028.267334</ele>
  <time>2012-07-25T19:07:42Z</time>
</trkpt>
<trkpt lat="46.619195938" lon="6.375138760">
  <ele>1028.267334</ele>
  <time>2012-07-25T19:07:44Z</time>
</trkpt>
<trkpt lat="46.618916988" lon="6.375160217">
  <ele>1028.267334</ele>
  <time>2012-07-25T19:07:48Z</time>
</trkpt>
<trkpt lat="46.617929935" lon="6.374430656">
  <ele>1027.786621</ele>
  <time>2012-07-25T19:07:54Z</time>
</trkpt>
<trkpt lat="46.617157459" lon="6.375310421">
  <ele>1027.786621</ele>
  <time>2012-07-25T19:08:00Z</time>
</trkpt>
<trkpt lat="46.616835594" lon="6.374087334">
  <ele>899.450684</ele>
  <time>2012-07-25T19:08:05Z</time>
</trkpt>
<trkpt lat="46.615526676" lon="6.373507977">
  <ele>898.008789</ele>
  <time>2012-07-25T19:08:20Z</time>
</trkpt>
<trkpt lat="46.614947319" lon="6.373765469">
  <ele>894.644043</ele>
  <time>2012-07-25T19:08:28Z</time>
</trkpt>
<trkpt lat="46.614282131" lon="6.374301910">
  <ele>893.202148</ele>
  <time>2012-07-25T19:08:37Z</time>
</trkpt>
<trkpt lat="46.613852978" lon="6.374430656">
  <ele>891.760010</ele>
  <time>2012-07-25T19:08:42Z</time>
</trkpt>
<trkpt lat="46.612372398" lon="6.374022961">
  <ele>877.821045</ele>
  <time>2012-07-25T19:08:58Z</time>
</trkpt>
<trkpt lat="46.611986160" lon="6.374108791">
  <ele>877.340576</ele>
  <time>2012-07-25T19:09:02Z</time>
</trkpt>
<trkpt lat="46.611278057" lon="6.374580860">
  <ele>872.052979</ele>
  <time>2012-07-25T19:09:09Z</time>
</trkpt>
<trkpt lat="46.610677242" lon="6.374645233">
  <ele>863.401367</ele>
  <time>2012-07-25T19:09:14Z</time>
</trkpt>
<trkpt lat="46.610462666" lon="6.374731064">
  <ele>862.439941</ele>
  <time>2012-07-25T19:09:16Z</time>
</trkpt>
<trkpt lat="46.610269547" lon="6.374902725">
  <ele>860.036621</ele>
  <time>2012-07-25T19:09:18Z</time>
</trkpt>
<trkpt lat="46.607737541" lon="6.376404762">
  <ele>833.119629</ele>
  <time>2012-07-25T19:09:40Z</time>
</trkpt>
<trkpt lat="46.607329845" lon="6.376833916">
  <ele>820.141846</ele>
  <time>2012-07-25T19:09:47Z</time>
</trkpt>
<trkpt lat="46.607201099" lon="6.376876831">
  <ele>813.893311</ele>
  <time>2012-07-25T19:09:53Z</time>
</trkpt>
<trkpt lat="46.606986523" lon="6.376726627">
  <ele>795.628174</ele>
  <time>2012-07-25T19:10:55Z</time>
</trkpt>
<trkpt lat="46.606364250" lon="6.376533508">
  <ele>791.302246</ele>
  <time>2012-07-25T19:11:13Z</time>
</trkpt>
<trkpt lat="46.605076790" lon="6.375739574">
  <ele>791.302246</ele>
  <time>2012-07-25T19:11:47Z</time>
</trkpt>
<trkpt lat="46.603510380" lon="6.374495029">
  <ele>788.899170</ele>
  <time>2012-07-25T19:12:30Z</time>
</trkpt>
<trkpt lat="46.602308750" lon="6.374495029">
  <ele>790.341064</ele>
  <time>2012-07-25T19:12:58Z</time>
</trkpt>
<trkpt lat="46.602094173" lon="6.374344826">
  <ele>790.821533</ele>
  <time>2012-07-25T19:13:05Z</time>
</trkpt>
<trkpt lat="46.601943970" lon="6.374452114">
  <ele>791.782959</ele>
  <time>2012-07-25T19:13:12Z</time>
</trkpt>
<trkpt lat="46.601750851" lon="6.374967098">
  <ele>791.302246</ele>
  <time>2012-07-25T19:13:23Z</time>
</trkpt>
<trkpt lat="46.601622105" lon="6.376512051">
  <ele>785.053955</ele>
  <time>2012-07-25T19:13:43Z</time>
</trkpt>
<trkpt lat="46.601471901" lon="6.376898289">
  <ele>779.766357</ele>
  <time>2012-07-25T19:13:47Z</time>
</trkpt>
<trkpt lat="46.601021290" lon="6.377134323">
  <ele>773.037354</ele>
  <time>2012-07-25T19:13:55Z</time>
</trkpt>
<trkpt lat="46.600699425" lon="6.376941204">
  <ele>769.672852</ele>
  <time>2012-07-25T19:14:00Z</time>
</trkpt>
<trkpt lat="46.600484848" lon="6.376705170">
  <ele>767.750000</ele>
  <time>2012-07-25T19:14:05Z</time>
</trkpt>
<trkpt lat="46.600077152" lon="6.376512051">
  <ele>760.540039</ele>
  <time>2012-07-25T19:14:14Z</time>
</trkpt>
<trkpt lat="46.599841118" lon="6.376147270">
  <ele>756.694824</ele>
  <time>2012-07-25T19:14:19Z</time>
</trkpt>
<trkpt lat="46.599776745" lon="6.375331879">
  <ele>752.849609</ele>
  <time>2012-07-25T19:14:31Z</time>
</trkpt>
</trkseg>
</trk>
</gpx>
